Terminal Aerodrome Forecast
Issued by NWS Duluth, MN

Home | Current Version | Previous Version | Text Only | Print | Product List | Glossary On
Versions: 1 2 3 4 5 6 7 8 9 10 11 12 13 14 15 16 17 18 19 20 21 22 23 24 25 26 27 28 29 30
000
FTUS43 KDLH 161600 AAB
TAFDLH
TAF AMD
KDLH 161605Z 1616/1712 27015G22KT P6SM SKC
     FM161900 26012G19KT P6SM SCT050
     FM162200 26008G15KT P6SM SCT100
     FM170000 25005KT P6SM SCT100=

USA.gov is the U.S. government's official web portal to all federal, state and local government web resources and services.